createdAt,value
2022-08-21T00:03:27.162Z,31.10
2022-08-21T00:08:49.159Z,32.63
2022-08-21T00:14:07.984Z,28.33
2022-08-21T00:19:36.346Z,26.95
2022-08-21T00:24:53.099Z,27.55
2022-08-21T00:30:01.907Z,26.85
2022-08-21T00:35:13.984Z,25.25
2022-08-21T00:40:27.250Z,25.23
2022-08-21T00:45:43.838Z,21.92
2022-08-21T00:50:58.694Z,24.02
2022-08-21T00:56:11.917Z,22.02
2022-08-21T01:01:16.646Z,19.98
2022-08-21T01:06:44.551Z,18.50
2022-08-21T01:11:51.018Z,16.73
2022-08-21T01:17:10.264Z,17.30
2022-08-21T01:28:27.083Z,17.85
2022-08-21T01:33:33.697Z,17.42
2022-08-21T01:38:47.104Z,19.70
2022-08-21T01:43:57.657Z,18.55
2022-08-21T01:49:05.095Z,17.63
2022-08-21T01:54:13.838Z,15.23
2022-08-21T01:59:22.944Z,13.25
2022-08-21T02:04:39.058Z,13.18
2022-08-21T02:09:50.594Z,13.75
2022-08-21T02:15:03.672Z,14.07
2022-08-21T02:25:40.063Z,12.65
2022-08-21T02:30:50.859Z,13.77
2022-08-21T02:36:12.249Z,11.90
2022-08-21T02:41:30.055Z,11.93
2022-08-21T02:46:49.451Z,11.55
2022-08-21T02:51:53.819Z,10.40
2022-08-21T02:57:13.214Z,9.43
2022-08-21T03:02:30.877Z,9.55
2022-08-21T03:07:53.268Z,8.57
2022-08-21T03:13:13.739Z,7.55
2022-08-21T03:18:19.024Z,7.07
2022-08-21T03:23:25.360Z,7.07
2022-08-21T03:28:38.211Z,6.72
2022-08-21T03:33:46.756Z,7.72
2022-08-21T03:38:54.858Z,6.43
2022-08-21T03:44:08.013Z,6.93
2022-08-21T03:49:18.388Z,5.15
2022-08-21T03:54:23.750Z,5.88
2022-08-21T03:59:38.845Z,4.82
2022-08-21T04:05:06.361Z,5.25
2022-08-21T04:10:12.509Z,5.38
2022-08-21T04:15:23.728Z,4.70
2022-08-21T04:20:31.772Z,5.03
2022-08-21T04:25:39.400Z,4.95
2022-08-21T04:30:56.306Z,5.10
2022-08-21T04:36:03.069Z,4.75
2022-08-21T04:41:13.957Z,4.57
2022-08-21T04:46:22.436Z,5.00
2022-08-21T04:51:31.338Z,4.30
2022-08-21T04:56:43.341Z,5.18
2022-08-21T05:01:50.293Z,5.28
2022-08-21T05:06:57.287Z,5.38
2022-08-21T05:12:02.825Z,5.35
2022-08-21T05:17:15.641Z,4.57
2022-08-21T05:22:23.685Z,4.38
2022-08-21T05:27:33.314Z,5.18
2022-08-21T05:32:43.126Z,4.97
2022-08-21T05:38:05.603Z,3.85
2022-08-21T05:43:19.623Z,4.22
2022-08-21T05:48:31.524Z,4.30
2022-08-21T05:53:35.812Z,3.92
2022-08-21T05:58:40.934Z,3.63
2022-08-21T06:03:50.093Z,4.22
2022-08-21T06:08:57.153Z,4.40
2022-08-21T06:14:03.226Z,3.67
2022-08-21T06:19:11.015Z,4.30
2022-08-21T06:24:17.682Z,4.18
2022-08-21T06:29:23.649Z,4.43
2022-08-21T06:34:32.486Z,3.70
2022-08-21T06:39:51.191Z,3.67
2022-08-21T06:45:05.912Z,4.30
2022-08-21T06:50:31.688Z,2.78
2022-08-21T06:55:37.533Z,2.72
2022-08-21T07:00:44.419Z,2.72
2022-08-21T07:05:55.198Z,2.60
2022-08-21T07:11:06.398Z,2.58
2022-08-21T07:16:12.305Z,2.38
2022-08-21T07:21:25.226Z,2.33
2022-08-21T07:26:34.794Z,2.20
2022-08-21T07:31:42.131Z,2.47
2022-08-21T07:36:48.671Z,2.17
2022-08-21T07:41:54.985Z,1.88
2022-08-21T07:47:05.358Z,2.28
2022-08-21T07:52:27.409Z,2.10
2022-08-21T07:57:36.318Z,2.10
2022-08-21T08:02:44.360Z,1.80
2022-08-21T08:07:59.621Z,2.72
2022-08-21T08:13:10.574Z,2.05
2022-08-21T08:18:22.994Z,1.85
2022-08-21T08:23:35.382Z,2.45
2022-08-21T08:28:42.530Z,2.13
2022-08-21T08:33:53.866Z,2.25
2022-08-21T08:39:04.573Z,1.80
2022-08-21T08:44:12.891Z,1.75
2022-08-21T08:49:26.373Z,1.45
2022-08-21T08:54:40.491Z,1.70
2022-08-21T08:59:50.504Z,1.23
2022-08-21T09:05:02.455Z,1.60
2022-08-21T09:10:20.726Z,1.40
2022-08-21T09:15:37.076Z,1.33
2022-08-21T09:21:17.667Z,1.63
2022-08-21T09:26:27.851Z,1.40
2022-08-21T09:31:38.852Z,1.30
2022-08-21T09:36:48.857Z,1.55
2022-08-21T09:42:08.752Z,1.48
2022-08-21T09:47:18.347Z,1.20
2022-08-21T09:52:28.985Z,1.73
2022-08-21T09:57:50.227Z,1.38
2022-08-21T10:02:58.624Z,1.52
2022-08-21T10:08:06.722Z,1.60
2022-08-21T10:13:16.996Z,1.70
2022-08-21T10:18:30.329Z,1.60
2022-08-21T10:24:04.083Z,1.73
2022-08-21T10:29:24.090Z,1.48
2022-08-21T10:34:45.446Z,1.70
2022-08-21T10:40:03.284Z,1.50
2022-08-21T10:45:36.309Z,1.50
2022-08-21T10:50:54.419Z,1.73
2022-08-21T10:56:23.869Z,1.98
2022-08-21T11:01:40.650Z,1.60
2022-08-21T11:06:55.447Z,1.60
2022-08-21T11:12:11.459Z,2.00
2022-08-21T11:17:27.594Z,1.73
2022-08-21T11:22:55.014Z,1.55
2022-08-21T11:28:09.806Z,1.65
2022-08-21T11:33:46.323Z,1.65
2022-08-21T11:39:04.835Z,1.75
2022-08-21T11:44:23.016Z,1.95
2022-08-21T11:49:54.320Z,1.90
2022-08-21T11:55:13.097Z,1.67
2022-08-21T12:00:21.853Z,1.50
2022-08-21T12:05:48.699Z,1.75
2022-08-21T12:11:07.997Z,1.60
2022-08-21T12:16:17.476Z,1.77
2022-08-21T12:21:30.179Z,1.73
2022-08-21T12:26:51.061Z,1.80
2022-08-21T12:32:06.075Z,1.95
2022-08-21T12:37:27.721Z,1.50
2022-08-21T12:42:58.072Z,1.15
2022-08-21T12:48:14.492Z,1.77
2022-08-21T12:53:36.653Z,2.03
2022-08-21T12:58:55.578Z,1.88
2022-08-21T13:04:16.649Z,1.88
2022-08-21T13:09:29.891Z,1.50
2022-08-21T13:14:45.955Z,1.80
2022-08-21T13:20:00.297Z,1.60
2022-08-21T13:25:20.947Z,1.90
2022-08-21T13:30:33.516Z,1.90
2022-08-21T13:35:52.767Z,1.35
2022-08-21T13:41:21.776Z,1.70
2022-08-21T13:46:45.875Z,1.80
2022-08-21T13:51:53.936Z,1.95
2022-08-21T13:57:02.816Z,1.60
2022-08-21T14:02:25.669Z,1.75
2022-08-21T14:07:37.535Z,1.77
2022-08-21T14:12:50.058Z,1.67
2022-08-21T14:17:59.320Z,2.10
2022-08-21T14:23:16.393Z,1.70
2022-08-21T14:28:33.297Z,1.55
2022-08-21T14:33:43.741Z,1.55
2022-08-21T14:39:01.827Z,1.83
2022-08-21T14:44:22.950Z,1.60
2022-08-21T14:49:30.696Z,2.42
2022-08-21T14:54:40.773Z,1.70
2022-08-21T14:59:55.117Z,1.50
2022-08-21T15:05:05.229Z,1.88
2022-08-21T15:10:15.699Z,1.50
2022-08-21T15:15:29.803Z,1.70
2022-08-21T15:20:44.115Z,1.65
2022-08-21T15:25:52.452Z,1.70
2022-08-21T15:31:02.118Z,1.77
2022-08-21T15:36:11.547Z,1.83
2022-08-21T15:41:21.745Z,1.40
2022-08-21T15:46:30.534Z,1.70
2022-08-21T15:51:36.453Z,1.80
2022-08-21T15:56:56.273Z,1.80
2022-08-21T16:02:10.772Z,1.70
2022-08-21T16:07:20.483Z,1.60
2022-08-21T16:12:30.575Z,1.73
2022-08-21T16:17:41.254Z,1.55
2022-08-21T16:22:53.153Z,1.95
2022-08-21T16:28:06.854Z,1.80
2022-08-21T16:33:34.440Z,2.00
2022-08-21T16:38:44.816Z,1.70
2022-08-21T16:43:55.918Z,1.60
2022-08-21T16:49:15.969Z,1.70
2022-08-21T16:54:26.602Z,1.40
2022-08-21T16:59:44.238Z,1.98
2022-08-21T17:05:03.727Z,1.45
2022-08-21T17:10:30.997Z,1.48
2022-08-21T17:15:43.427Z,1.50
2022-08-21T17:20:54.934Z,2.03
2022-08-21T17:26:03.788Z,1.80
2022-08-21T17:31:13.204Z,1.67
2022-08-21T17:36:19.514Z,1.80
2022-08-21T17:41:26.228Z,1.63
2022-08-21T17:46:38.286Z,2.20
2022-08-21T17:51:45.133Z,2.33
2022-08-21T17:56:49.549Z,2.10
2022-08-21T18:02:23.277Z,1.80
2022-08-21T18:07:32.660Z,1.92
2022-08-21T18:13:02.863Z,2.33
2022-08-21T18:18:14.043Z,2.03
2022-08-21T18:23:20.962Z,2.42
2022-08-21T18:28:52.036Z,2.15
2022-08-21T18:34:01.457Z,2.05
2022-08-21T18:39:35.401Z,2.38
2022-08-21T18:44:40.341Z,2.33
2022-08-21T18:50:03.233Z,2.13
2022-08-21T18:55:17.873Z,2.42
2022-08-21T19:00:26.745Z,2.50
2022-08-21T19:05:36.520Z,2.47
2022-08-21T19:10:57.455Z,2.50
2022-08-21T19:16:15.815Z,2.35
2022-08-21T19:21:22.664Z,2.28
2022-08-21T19:26:36.502Z,1.90
2022-08-21T19:31:44.554Z,1.95
2022-08-21T19:37:08.505Z,2.13
2022-08-21T19:42:28.700Z,2.45
2022-08-21T19:47:52.134Z,2.30
2022-08-21T19:53:01.874Z,2.00
2022-08-21T19:58:22.746Z,1.77
2022-08-21T20:03:43.753Z,2.13
2022-08-21T20:08:53.740Z,1.73
2022-08-21T20:14:06.446Z,1.92
2022-08-21T20:19:24.737Z,2.10
2022-08-21T20:24:31.359Z,2.10
2022-08-21T20:29:51.916Z,2.10
2022-08-21T20:34:59.141Z,1.83
2022-08-21T20:40:08.502Z,2.17
2022-08-21T20:45:22.330Z,2.30
2022-08-21T20:50:30.316Z,2.72
2022-08-21T20:55:44.134Z,2.10
2022-08-21T21:00:56.696Z,2.38
2022-08-21T21:06:10.004Z,2.17
2022-08-21T21:11:21.854Z,2.47
2022-08-21T21:16:33.644Z,2.33
2022-08-21T21:21:51.359Z,2.72
2022-08-21T21:27:11.838Z,2.35
2022-08-21T21:37:52.316Z,2.22
2022-08-21T21:43:07.426Z,1.80
2022-08-21T21:53:55.296Z,2.20
2022-08-21T22:05:01.022Z,2.17
2022-08-21T22:10:30.078Z,2.13
2022-08-21T22:15:33.739Z,2.15
2022-08-21T22:20:43.006Z,2.15
2022-08-21T22:25:51.423Z,2.85
2022-08-21T22:30:58.201Z,2.35
2022-08-21T22:36:15.032Z,2.42
2022-08-21T22:41:27.936Z,2.50
2022-08-21T22:46:35.098Z,2.28
2022-08-21T22:51:43.429Z,2.40
2022-08-21T22:56:56.561Z,2.55
2022-08-21T23:02:12.449Z,2.55
2022-08-21T23:07:32.810Z,2.85
2022-08-21T23:12:43.714Z,2.45
2022-08-21T23:18:01.406Z,2.35
2022-08-21T23:23:12.311Z,2.88
2022-08-21T23:28:32.633Z,2.58
2022-08-21T23:33:52.814Z,2.35
2022-08-21T23:39:09.943Z,2.70
2022-08-21T23:44:41.130Z,2.83
2022-08-21T23:49:54.041Z,2.70
2022-08-21T23:55:29.327Z,3.05
